Time;durP1;ratioP1;P1;durP2;ratioP2;P2;SDS_P1;SDS_P2;PMS_P1;PMS_P2;Temp;Humidity;BMP_temperature;BMP_pressure;BME280_temperature;BME280_humidity;BME280_pressure;Samples;Min_cycle;Max_cycle;Signal;HPM_P1;HPM_P2
2022/12/04 00:00:13;;;;;;;67.40;24.60;;;;;;;9.22;42.42;101970.84;5113891;27;20052;-68
2022/12/04 00:02:39;;;;;;;62.77;23.10;;;;;;;9.62;41.08;101964.44;5112126;27;20122;-68
2022/12/04 00:05:06;;;;;;;60.90;23.93;;;;;;;8.75;43.47;101969.31;5111997;27;20023;-69
2022/12/04 00:07:31;;;;;;;59.67;23.10;;;;;;;9.31;42.40;101971.88;5131816;27;20022;-68
2022/12/04 00:09:57;;;;;;;67.00;23.97;;;;;;;8.95;43.48;101957.44;5114305;27;20371;-68
2022/12/04 00:12:22;;;;;;;66.80;24.23;;;;;;;9.38;42.32;101967.59;5131344;27;20019;-68
2022/12/04 00:14:47;;;;;;;60.13;23.00;;;;;;;8.58;43.19;101962.09;5111255;27;20023;-68
2022/12/04 00:17:13;;;;;;;59.37;22.43;;;;;;;8.64;43.84;101959.59;5133076;27;20051;-68
2022/12/04 00:19:39;;;;;;;70.77;25.13;;;;;;;9.66;41.68;101966.22;5113150;27;20486;-68
2022/12/04 00:22:04;;;;;;;62.03;23.57;;;;;;;8.96;43.15;101955.72;5113326;27;20023;-69
2022/12/04 00:24:29;;;;;;;63.97;22.30;;;;;;;7.35;45.53;101964.97;5113528;27;20075;-68
2022/12/04 00:26:55;;;;;;;69.70;25.73;;;;;;;8.74;43.37;101951.94;5113535;27;20027;-69
2022/12/04 00:29:21;;;;;;;66.53;24.00;;;;;;;8.82;43.29;101952.94;5112346;27;20684;-69
2022/12/04 00:31:46;;;;;;;64.13;24.07;;;;;;;8.52;43.84;101962.00;5113554;27;20107;-69
2022/12/04 00:34:12;;;;;;;72.33;25.77;;;;;;;7.73;44.99;101962.28;5113511;27;20118;-69
2022/12/04 00:36:37;;;;;;;65.90;24.13;;;;;;;7.40;46.14;101956.41;5112281;27;20019;-68
2022/12/04 00:39:03;;;;;;;68.33;24.80;;;;;;;7.78;45.14;101960.66;5113001;27;20046;-68
2022/12/04 00:41:31;;;;;;;72.30;24.97;;;;;;;7.99;45.08;101952.34;5113982;27;20049;-69
2022/12/04 00:43:57;;;;;;;67.93;24.43;;;;;;;8.48;44.64;101952.38;5112092;27;20019;-68
2022/12/04 00:46:23;;;;;;;65.87;23.63;;;;;;;8.05;45.13;101951.59;5113014;27;20543;-68
2022/12/04 00:48:50;;;;;;;65.37;25.47;;;;;;;7.07;46.82;101953.97;5111124;27;20053;-69
2022/12/04 00:51:19;;;;;;;62.27;23.87;;;;;;;7.47;46.91;101949.59;5131354;27;20083;-68
2022/12/04 00:53:44;;;;;;;57.73;22.43;;;;;;;8.66;44.30;101944.84;5131233;27;20023;-69
2022/12/04 00:56:13;;;;;;;67.20;24.00;;;;;;;8.54;44.19;101946.41;5112379;27;20115;-68
2022/12/04 00:58:39;;;;;;;64.10;23.70;;;;;;;8.45;44.61;101945.38;5113933;27;20360;-68
2022/12/04 01:01:11;;;;;;;67.93;25.17;;;;;;;9.72;42.46;101946.25;5132258;27;20303;-69
2022/12/04 01:03:38;;;;;;;67.75;24.08;;;;;;;9.10;42.97;101941.13;5129371;27;20490;-68
2022/12/04 01:06:04;;;;;;;69.50;24.87;;;;;;;8.01;44.62;101947.16;5112359;27;20034;-68
2022/12/04 01:08:30;;;;;;;62.70;24.47;;;;;;;8.19;44.76;101949.22;5111316;27;20036;-69
2022/12/04 01:10:55;;;;;;;65.90;25.07;;;;;;;6.96;47.08;101962.41;5112998;28;20034;-68
2022/12/04 01:13:21;;;;;;;71.50;25.07;;;;;;;7.83;46.43;101964.22;5112932;28;20101;-68
2022/12/04 01:15:48;;;;;;;66.50;26.07;;;;;;;7.26;46.42;101958.72;5111259;27;20385;-68
2022/12/04 01:18:14;;;;;;;75.10;27.13;;;;;;;7.08;47.14;101955.72;5126472;27;20058;-68
2022/12/04 01:20:39;;;;;;;65.17;23.23;;;;;;;8.44;44.85;101947.94;5132141;27;20035;-68
2022/12/04 01:23:05;;;;;;;69.93;26.10;;;;;;;7.27;46.24;101955.28;5128818;27;20034;-68
2022/12/04 01:25:31;;;;;;;72.17;25.80;;;;;;;7.87;45.41;101950.41;5130075;27;20031;-68
2022/12/04 01:27:56;;;;;;;74.77;25.00;;;;;;;8.54;44.12;101955.06;5113422;28;20019;-68
2022/12/04 01:30:21;;;;;;;69.00;25.10;;;;;;;7.79;44.98;101952.88;5110951;28;20475;-69
2022/12/04 01:32:47;;;;;;;76.80;26.30;;;;;;;8.55;44.80;101946.41;5111454;28;20027;-69
2022/12/04 01:35:12;;;;;;;72.60;25.17;;;;;;;7.67;45.66;101956.97;5113438;28;20050;-68
2022/12/04 01:37:38;;;;;;;69.70;26.33;;;;;;;8.38;44.16;101943.50;5111681;28;20027;-69
2022/12/04 01:40:04;;;;;;;67.40;25.77;;;;;;;8.79;43.88;101945.03;5111692;28;20035;-68
2022/12/04 01:42:30;;;;;;;66.27;24.07;;;;;;;8.64;43.41;101941.34;5113146;28;20079;-69
2022/12/04 01:45:33;;;;;;;66.07;24.40;;;;;;;8.52;43.83;101946.38;5113351;28;20110;-69
2022/12/04 01:48:12;;;;;;;69.07;24.77;;;;;;;8.50;43.73;101937.63;5092981;28;20126;-69
2022/12/04 01:50:38;;;;;;;68.80;26.20;;;;;;;7.73;45.39;101951.88;5112401;28;20027;-67
2022/12/04 01:53:04;;;;;;;68.90;26.43;;;;;;;7.98;45.48;101943.69;5110154;28;20567;-68
2022/12/04 01:55:30;;;;;;;71.80;26.37;;;;;;;8.64;44.10;101941.34;5113241;28;20024;-68
2022/12/04 01:57:56;;;;;;;73.03;25.33;;;;;;;8.93;42.90;101943.53;5112482;28;20051;-68
2022/12/04 02:00:22;;;;;;;74.47;26.30;;;;;;;7.89;46.16;101943.50;5108708;28;20082;-68
2022/12/04 02:02:47;;;;;;;75.20;26.83;;;;;;;8.13;44.88;101942.19;5112630;28;20047;-68
2022/12/04 02:05:16;;;;;;;71.07;25.70;;;;;;;7.78;45.11;101950.22;5113252;28;20495;-68
2022/12/04 02:07:44;;;;;;;70.73;26.67;;;;;;;9.06;43.51;101954.13;5111401;28;20461;-68
2022/12/04 02:10:10;;;;;;;68.97;25.83;;;;;;;8.79;43.50;101952.84;5110715;28;20041;-68
2022/12/04 02:12:38;;;;;;;78.37;28.97;;;;;;;8.19;45.19;101949.22;5112116;28;20054;-69
2022/12/04 02:15:08;;;;;;;80.00;27.03;;;;;;;8.46;44.49;101951.47;5111169;28;20130;-68
2022/12/04 02:17:58;;;;;;;70.13;26.83;;;;;;;8.99;43.73;101942.72;5113176;28;20524;-69
2022/12/04 02:20:40;;;;;;;77.10;26.10;;;;;;;8.55;44.49;101946.41;5110354;28;20470;-68
2022/12/04 02:23:17;;;;;;;73.63;26.30;;;;;;;8.08;45.79;101944.72;5099599;28;20050;-69
2022/12/04 02:25:52;;;;;;;71.37;27.30;;;;;;;8.70;43.91;101944.91;5113085;28;20042;-69
2022/12/04 02:28:29;;;;;;;80.13;28.13;;;;;;;8.14;45.31;101939.59;5110475;28;20042;-68
2022/12/04 02:30:58;;;;;;;82.20;28.60;;;;;;;7.94;45.86;101935.75;5105875;28;20071;-69
2022/12/04 02:33:30;;;;;;;69.37;26.00;;;;;;;9.24;43.58;101930.88;5101263;28;20041;-68
2022/12/04 02:36:19;;;;;;;76.03;26.30;;;;;;;9.64;42.37;101920.97;5130756;27;20031;-69
2022/12/04 02:39:08;;;;;;;72.43;28.27;;;;;;;8.61;44.03;101920.47;5114563;27;20431;-68
2022/12/04 02:41:43;;;;;;;76.90;27.97;;;;;;;8.85;43.84;101923.38;5115699;27;20032;-68
2022/12/04 02:44:15;;;;;;;76.60;25.70;;;;;;;8.15;45.48;101917.06;5129918;27;20042;-69
2022/12/04 02:46:48;;;;;;;65.40;25.87;;;;;;;7.94;46.16;101923.66;5134753;27;20027;-68
2022/12/04 02:49:19;;;;;;;74.87;28.47;;;;;;;8.28;45.65;101916.44;5113768;27;20335;-69
2022/12/04 02:51:47;;;;;;;73.67;27.83;;;;;;;8.03;45.83;101916.84;5116303;27;20023;-68
2022/12/04 02:54:28;;;;;;;73.07;26.57;;;;;;;8.06;46.02;101909.94;5113847;27;20068;-68
2022/12/04 02:56:55;;;;;;;70.53;25.50;;;;;;;8.56;44.76;101910.78;5115381;27;20540;-69
2022/12/04 02:59:29;;;;;;;72.90;26.17;;;;;;;9.55;42.90;101918.22;5114266;27;20039;-69
2022/12/04 03:01:59;;;;;;;77.13;27.30;;;;;;;8.52;44.35;101915.09;5116107;27;20072;-68
2022/12/04 03:04:29;;;;;;;74.33;26.67;;;;;;;8.45;44.80;101910.66;5112451;27;20505;-68
2022/12/04 03:07:26;;;;;;;70.43;28.47;;;;;;;7.90;46.32;101914.03;5114845;27;20042;-68
2022/12/04 03:09:58;;;;;;;74.17;26.83;;;;;;;8.87;43.50;101906.91;5075006;28;20383;-69
2022/12/04 03:12:47;;;;;;;74.57;27.27;;;;;;;8.66;44.28;101908.34;5103688;27;20482;-69
2022/12/04 03:15:24;;;;;;;108.33;40.13;;;;;;;9.16;43.83;101903.81;5131531;27;20044;-68
2022/12/04 03:18:04;;;;;;;79.70;30.17;;;;;;;8.02;45.51;101915.94;5115060;27;20125;-68
2022/12/04 03:20:33;;;;;;;68.87;25.23;;;;;;;8.04;45.72;101910.81;5115008;27;20027;-69
2022/12/04 03:23:05;;;;;;;71.67;27.73;;;;;;;7.54;46.63;101914.19;5114109;27;20470;-68
2022/12/04 03:25:35;;;;;;;78.07;29.20;;;;;;;8.62;44.65;101911.78;5113396;27;20026;-69
2022/12/04 03:28:07;;;;;;;78.10;28.13;;;;;;;8.66;44.45;101913.56;5114086;27;20031;-68
2022/12/04 03:30:48;;;;;;;74.63;26.30;;;;;;;8.26;44.74;101920.72;5115520;27;20015;-68
2022/12/04 03:33:25;;;;;;;73.80;26.27;;;;;;;7.55;46.83;101916.81;5131984;27;20015;-68
2022/12/04 03:36:15;;;;;;;76.57;26.27;;;;;;;8.71;44.43;101910.16;5127280;27;20070;-68
2022/12/04 03:38:50;;;;;;;71.77;27.47;;;;;;;8.77;44.68;101899.84;5109580;27;20534;-68
2022/12/04 03:41:47;;;;;;;72.07;25.53;;;;;;;8.02;45.48;101907.28;5133206;27;20031;-69
2022/12/04 03:44:42;;;;;;;77.50;27.53;;;;;;;7.71;46.26;101897.19;5115179;27;20035;-69
2022/12/04 03:47:14;;;;;;;68.83;26.33;;;;;;;8.21;45.95;101893.72;5105545;27;20035;-68
2022/12/04 03:49:48;;;;;;;;;;;;;;;8.53;45.27;101885.59;5111246;27;20176;-69
2022/12/04 03:52:28;;;;;;;73.10;26.40;;;;;;;7.28;46.81;101897.22;5111637;27;19919;-68
2022/12/04 03:55:03;;;;;;;69.57;27.33;;;;;;;7.11;47.61;101893.38;5113618;27;20027;-69
2022/12/04 03:57:33;;;;;;;72.37;27.77;;;;;;;8.52;44.55;101877.72;5132872;27;20079;-68
2022/12/04 04:00:15;;;;;;;70.27;27.10;;;;;;;8.21;45.16;101882.44;5093652;28;20043;-68
2022/12/04 04:02:49;;;;;;;70.22;25.20;;;;;;;7.86;46.15;101888.78;5094261;28;20030;-68
2022/12/04 04:05:16;;;;;;;74.47;28.47;;;;;;;7.72;46.50;101892.84;5112267;27;20087;-68
2022/12/04 04:08:24;;;;;;;71.17;27.10;;;;;;;7.70;46.75;101886.75;5110036;27;20375;-68
2022/12/04 04:10:47;;;;;;;75.83;27.67;;;;;;;8.92;44.38;101878.31;5119688;27;20424;-69
2022/12/04 04:24:35;;;;;;;79.00;27.90;;;;;;;8.44;45.01;101878.44;5112416;28;20100;-68
2022/12/04 04:27:01;;;;;;;75.90;28.40;;;;;;;7.88;46.28;101889.66;5095254;27;20126;-69
2022/12/04 04:29:27;;;;;;;73.53;28.47;;;;;;;7.61;46.85;101885.72;5111355;27;20127;-68
2022/12/04 04:32:07;;;;;;;80.07;30.43;;;;;;;7.74;47.08;101885.97;5112450;27;20141;-68
2022/12/04 04:34:44;;;;;;;81.70;30.40;;;;;;;8.70;44.89;101879.75;5131923;27;20102;-68
2022/12/04 04:37:31;;;;;;;73.50;26.57;;;;;;;8.76;44.85;101879.81;5108854;27;20049;-68
2022/12/04 04:40:15;;;;;;;72.63;28.27;;;;;;;8.51;45.33;101886.41;5111936;27;20039;-68
2022/12/04 04:43:08;;;;;;;73.63;27.53;;;;;;;8.72;44.53;101885.84;5112672;27;20114;-68
2022/12/04 04:45:45;;;;;;;76.67;27.73;;;;;;;8.86;44.80;101880.81;5132578;27;20027;-69
2022/12/04 04:48:22;;;;;;;72.90;27.57;;;;;;;8.17;46.09;101884.09;5111140;27;20050;-68
2022/12/04 04:50:49;;;;;;;84.43;31.40;;;;;;;8.30;45.92;101888.66;5123037;27;20393;-68
2022/12/04 04:53:29;;;;;;;71.07;27.20;;;;;;;8.49;45.31;101889.88;5131609;27;20068;-68
2022/12/04 04:55:55;;;;;;;77.20;27.50;;;;;;;8.72;44.34;101885.84;5131478;27;20038;-69
2022/12/04 04:58:20;;;;;;;74.57;28.73;;;;;;;8.65;44.67;101890.97;5112889;27;20035;-68
2022/12/04 05:01:00;;;;;;;81.07;30.53;;;;;;;8.78;45.14;101893.78;5112110;27;20107;-68
2022/12/04 05:03:27;;;;;;;78.33;30.07;;;;;;;8.73;44.68;101898.03;5111888;27;20174;-69
2022/12/04 05:05:52;;;;;;;72.20;27.70;;;;;;;8.33;44.73;101904.34;5110965;27;20031;-68
2022/12/04 05:08:17;;;;;;;75.37;29.93;;;;;;;8.86;44.68;101899.97;5110166;28;20031;-68
2022/12/04 05:10:43;;;;;;;76.57;28.97;;;;;;;8.59;45.14;101888.28;5112773;27;20048;-68
2022/12/04 05:13:11;;;;;;;74.30;31.20;;;;;;;8.91;44.77;101893.06;5113837;27;20371;-68
2022/12/04 05:15:36;;;;;;;74.90;29.67;;;;;;;9.02;44.59;101889.75;5112776;27;20084;-69
2022/12/04 05:18:01;;;;;;;74.77;28.30;;;;;;;8.81;44.46;101899.03;5106770;27;20031;-68
2022/12/04 05:20:27;;;;;;;68.20;26.43;;;;;;;8.10;46.33;101896.13;5109412;27;20035;-68
2022/12/04 05:22:52;;;;;;;72.67;27.83;;;;;;;8.99;43.92;101901.88;5111569;27;20110;-68
2022/12/04 05:25:18;;;;;;;79.33;30.20;;;;;;;8.56;44.50;101896.06;5112743;28;20031;-68
2022/12/04 05:27:43;;;;;;;78.17;27.67;;;;;;;8.51;45.70;101902.91;5113507;28;20386;-69
2022/12/04 05:30:10;;;;;;;78.67;29.27;;;;;;;8.33;46.34;101901.72;5129419;28;20034;-69
2022/12/04 05:32:35;;;;;;;74.30;28.63;;;;;;;8.70;44.90;101909.28;5111831;28;20061;-68
2022/12/04 05:35:01;;;;;;;71.63;28.20;;;;;;;8.77;44.85;101915.47;5110697;28;20061;-69
2022/12/04 05:37:26;;;;;;;79.27;29.50;;;;;;;8.11;46.18;101913.50;5130112;28;20033;-68
2022/12/04 05:39:52;;;;;;;82.23;30.43;;;;;;;8.45;45.62;101910.66;5112235;28;20367;-68
2022/12/04 05:42:17;;;;;;;80.53;28.83;;;;;;;8.51;45.45;101904.66;5111290;28;20151;-68
2022/12/04 05:44:43;;;;;;;82.53;29.57;;;;;;;9.00;44.76;101902.75;5111322;28;20035;-68
2022/12/04 05:47:08;;;;;;;73.13;27.37;;;;;;;8.19;46.09;101900.63;5110092;28;20114;-68
2022/12/04 05:49:34;;;;;;;73.27;28.57;;;;;;;8.00;46.42;101906.38;5113386;28;20066;-68
2022/12/04 05:52:01;;;;;;;76.37;28.33;;;;;;;7.76;47.24;101910.28;5111214;28;20116;-68
2022/12/04 05:54:26;;;;;;;83.33;30.07;;;;;;;8.45;45.97;101908.91;5113197;28;20023;-68
2022/12/04 05:56:51;;;;;;;73.10;29.83;;;;;;;8.85;44.81;101908.63;5131771;28;20095;-69
2022/12/04 05:59:17;;;;;;;79.80;31.00;;;;;;;8.46;45.18;101907.16;5108221;28;20055;-69
2022/12/04 06:01:44;;;;;;;80.17;28.57;;;;;;;8.53;45.65;101911.66;5108956;28;20659;-68
2022/12/04 06:04:09;;;;;;;79.03;28.80;;;;;;;7.92;47.47;101901.91;5108871;28;20031;-69
2022/12/04 06:06:35;;;;;;;79.03;28.73;;;;;;;8.31;46.47;101911.25;5107494;28;20047;-68
2022/12/04 06:09:02;;;;;;;79.37;28.73;;;;;;;8.60;45.85;101905.66;5111014;28;20019;-68
2022/12/04 06:11:31;;;;;;;68.87;27.67;;;;;;;8.56;45.61;101903.88;5110166;28;20024;-68
2022/12/04 06:13:58;;;;;;;74.33;28.07;;;;;;;9.12;44.08;101899.41;5108831;28;20035;-68
2022/12/04 06:16:26;;;;;;;78.13;29.30;;;;;;;9.08;44.37;101908.06;5113518;28;20071;-68
2022/12/04 06:18:54;;;;;;;79.77;28.93;;;;;;;8.54;45.58;101908.16;5113664;28;20028;-68
2022/12/04 06:21:22;;;;;;;80.60;29.20;;;;;;;8.59;45.37;101900.44;5114073;28;20511;-68
2022/12/04 06:23:47;;;;;;;78.60;30.47;;;;;;;8.61;45.70;101899.63;5110699;28;20028;-69
2022/12/04 06:26:13;;;;;;;72.50;28.37;;;;;;;8.28;46.27;101895.59;5113190;28;20049;-68
2022/12/04 06:28:39;;;;;;;69.77;28.40;;;;;;;8.30;45.94;101893.88;5110810;28;20509;-68
2022/12/04 06:31:07;;;;;;;82.47;30.87;;;;;;;8.50;46.15;101901.16;5114786;28;20550;-68
2022/12/04 06:33:33;;;;;;;79.30;29.60;;;;;;;8.40;45.70;101899.25;5110209;28;20020;-69
2022/12/04 06:36:00;;;;;;;76.43;28.67;;;;;;;7.89;47.21;101904.44;5113519;28;20035;-69
2022/12/04 06:38:25;;;;;;;73.30;29.20;;;;;;;8.43;45.79;101899.28;5113221;28;20405;-68
2022/12/04 06:40:51;;;;;;;76.63;28.63;;;;;;;8.19;46.34;101911.06;5109101;28;20023;-68
2022/12/04 06:43:16;;;;;;;80.17;28.93;;;;;;;8.69;45.28;101897.09;5111968;28;20399;-68
2022/12/04 06:45:41;;;;;;;79.10;29.50;;;;;;;7.54;47.93;101903.78;5112301;27;20092;-68
2022/12/04 06:48:07;;;;;;;75.93;28.50;;;;;;;7.32;48.52;101910.28;5111707;28;20027;-68
2022/12/04 06:50:32;;;;;;;74.80;28.90;;;;;;;7.49;48.13;101901.09;5112878;28;20027;-68
2022/12/04 06:52:57;;;;;;;72.40;27.60;;;;;;;7.35;48.90;101902.53;5112043;28;20475;-68
2022/12/04 06:55:23;;;;;;;77.90;28.47;;;;;;;8.14;46.67;101894.47;5111086;28;20031;-68
2022/12/04 06:57:48;;;;;;;82.17;30.03;;;;;;;8.04;46.96;101893.44;5111195;28;20118;-68
2022/12/04 07:00:14;;;;;;;75.53;27.43;;;;;;;8.03;47.28;101896.00;5112297;28;20051;-69
2022/12/04 07:02:39;;;;;;;71.80;25.93;;;;;;;7.83;47.15;101912.16;5110778;28;20398;-68
2022/12/04 07:05:05;;;;;;;77.97;27.97;;;;;;;8.09;47.31;101903.91;5114119;28;20103;-68
2022/12/04 07:07:31;;;;;;;84.03;28.17;;;;;;;7.78;48.14;101899.03;5108414;28;20069;-68
2022/12/04 07:09:56;;;;;;;73.50;27.33;;;;;;;7.66;47.94;101897.94;5111041;28;20118;-69
2022/12/04 07:12:21;;;;;;;74.00;27.53;;;;;;;7.87;47.61;101903.56;5107682;28;20462;-68
2022/12/04 07:14:47;;;;;;;78.00;31.40;;;;;;;8.48;46.66;101895.91;5112334;28;20023;-68
2022/12/04 07:17:12;;;;;;;73.83;27.33;;;;;;;8.45;45.81;101903.69;5109073;28;20031;-68
2022/12/04 07:19:37;;;;;;;78.07;28.63;;;;;;;8.08;46.84;101907.41;5109482;28;20084;-68
2022/12/04 07:22:03;;;;;;;80.17;29.00;;;;;;;8.53;46.05;101901.22;5110986;28;20027;-68
2022/12/04 07:24:28;;;;;;;75.23;28.57;;;;;;;8.73;45.81;101900.63;5110689;28;20035;-68
2022/12/04 07:26:54;;;;;;;74.13;27.33;;;;;;;7.89;47.16;101906.19;5107242;27;20033;-68
2022/12/04 07:29:19;;;;;;;73.60;28.10;;;;;;;8.12;46.20;101896.19;5108045;28;20035;-69
2022/12/04 07:31:45;;;;;;;71.73;28.50;;;;;;;8.65;45.66;101911.84;5109398;28;20057;-68
2022/12/04 07:34:10;;;;;;;71.97;28.00;;;;;;;8.38;45.75;101907.03;5110120;28;20030;-69
2022/12/04 07:36:41;;;;;;;78.00;30.07;;;;;;;8.72;45.34;101910.16;5105960;28;20120;-69
2022/12/04 07:39:07;;;;;;;77.07;26.03;;;;;;;8.33;45.27;101904.34;5101271;28;20031;-68
2022/12/04 07:41:33;;;;;;;79.87;28.13;;;;;;;7.89;47.06;101909.66;5110051;28;20031;-68
2022/12/04 07:43:58;;;;;;;72.20;27.53;;;;;;;8.46;45.21;101907.16;5106726;28;20043;-69
2022/12/04 07:46:26;;;;;;;87.30;30.43;;;;;;;8.72;45.60;101906.69;5110950;28;20118;-72
2022/12/04 07:48:54;;;;;;;65.73;27.60;;;;;;;8.43;46.03;101912.31;5113081;28;20023;-72
2022/12/04 07:51:23;;;;;;;72.13;28.40;;;;;;;8.57;45.75;101916.06;5103485;28;20397;-72
2022/12/04 07:53:50;;;;;;;72.47;27.87;;;;;;;8.25;45.65;101913.75;5112234;28;20028;-71
2022/12/04 07:56:16;;;;;;;80.10;29.27;;;;;;;8.54;45.86;101918.59;5111903;28;20466;-72
2022/12/04 07:58:42;;;;;;;76.63;28.30;;;;;;;8.03;46.46;101916.84;5112258;28;20035;-71
2022/12/04 08:01:09;;;;;;;75.83;26.20;;;;;;;8.01;46.65;101928.94;5097523;28;20325;-72
2022/12/04 08:03:35;;;;;;;68.93;25.20;;;;;;;8.02;46.28;101922.91;5101935;28;20028;-71
2022/12/04 08:06:01;;;;;;;78.03;29.03;;;;;;;8.40;45.62;101922.69;5110800;27;20087;-72
2022/12/04 08:08:27;;;;;;;76.50;28.53;;;;;;;7.45;48.57;101933.97;5111487;28;20028;-72
2022/12/04 08:10:52;;;;;;;77.07;27.90;;;;;;;7.92;47.07;101934.88;5111993;28;20436;-72
2022/12/04 08:13:18;;;;;;;71.63;27.80;;;;;;;8.40;46.64;101935.72;5110560;28;20027;-73
2022/12/04 08:15:43;;;;;;;76.30;28.17;;;;;;;9.23;44.99;101931.78;5109444;28;20027;-73
2022/12/04 08:18:11;;;;;;;72.87;27.10;;;;;;;8.08;46.83;101941.25;5089725;28;20039;-71
2022/12/04 08:20:36;;;;;;;68.93;28.07;;;;;;;8.29;46.41;101933.78;5096140;28;20031;-71
2022/12/04 08:23:01;;;;;;;73.67;27.53;;;;;;;8.55;46.12;101941.19;5090074;28;20032;-71
2022/12/04 08:25:27;;;;;;;70.50;26.50;;;;;;;8.45;45.96;101934.09;5100943;28;20109;-71
2022/12/04 08:27:52;;;;;;;78.53;28.27;;;;;;;8.58;45.19;101929.94;5106401;28;20027;-71
2022/12/04 08:30:18;;;;;;;69.63;26.27;;;;;;;8.73;45.38;101943.22;5107880;28;20026;-71
2022/12/04 08:32:43;;;;;;;71.80;25.97;;;;;;;8.08;46.98;101949.06;5108120;27;20372;-71
2022/12/04 08:35:09;;;;;;;74.80;28.90;;;;;;;7.63;47.85;101946.47;5100710;28;20118;-71
2022/12/04 08:37:34;;;;;;;74.30;28.70;;;;;;;8.45;46.83;101945.38;5100942;28;20501;-71
2022/12/04 08:39:59;;;;;;;67.17;26.53;;;;;;;8.24;46.34;101951.09;5104518;28;20027;-71
2022/12/04 08:42:25;;;;;;;67.70;27.57;;;;;;;7.78;46.97;101945.03;5107494;28;20528;-71
2022/12/04 08:44:50;;;;;;;62.60;24.67;;;;;;;8.04;46.54;101949.84;5108270;28;20130;-71
2022/12/04 08:47:15;;;;;;;76.40;26.37;;;;;;;8.30;46.26;101948.56;5106502;28;20058;-71
2022/12/04 08:49:41;;;;;;;70.97;25.60;;;;;;;7.85;47.80;101967.72;5096249;28;20038;-71
2022/12/04 08:52:06;;;;;;;70.40;25.73;;;;;;;8.30;46.64;101951.19;5109454;28;20025;-72
2022/12/04 08:54:32;;;;;;;63.47;24.30;;;;;;;8.60;45.30;101949.97;5109847;28;20054;-71
2022/12/04 08:56:57;;;;;;;74.00;27.37;;;;;;;7.97;46.58;101962.75;5110531;28;20034;-71
2022/12/04 08:59:22;;;;;;;68.20;26.23;;;;;;;8.14;47.08;101954.38;5106898;27;20035;-70
2022/12/04 09:01:50;;;;;;;68.50;28.03;;;;;;;8.72;45.18;101948.41;5108797;28;20114;-71
2022/12/04 09:04:16;;;;;;;69.37;25.87;;;;;;;9.22;44.79;101956.09;5109169;28;20368;-71
2022/12/04 09:06:42;;;;;;;65.93;26.47;;;;;;;8.87;45.70;101966.88;5108841;28;20047;-71
2022/12/04 09:09:08;;;;;;;69.67;26.27;;;;;;;8.08;47.73;101960.34;5108797;28;20023;-72
2022/12/04 09:11:33;;;;;;;71.47;25.70;;;;;;;8.55;46.14;101971.59;5110230;28;20073;-71
2022/12/04 09:14:00;;;;;;;68.27;25.40;;;;;;;7.55;48.82;101978.41;5107102;28;20023;-71
2022/12/04 09:16:26;;;;;;;70.87;25.20;;;;;;;7.34;49.65;101971.03;5105241;27;20027;-71
2022/12/04 09:18:52;;;;;;;72.50;25.83;;;;;;;7.36;48.87;101971.94;5103701;28;20031;-70
2022/12/04 09:21:19;;;;;;;68.93;26.93;;;;;;;7.82;48.00;101967.66;5108987;28;20399;-73
2022/12/04 09:23:45;;;;;;;69.90;27.47;;;;;;;8.02;48.66;101964.56;5107909;28;20023;-71
2022/12/04 09:26:24;;;;;;;71.30;26.80;;;;;;;9.13;45.90;101961.19;5106631;28;20395;-73
2022/12/04 09:28:51;;;;;;;62.60;23.90;;;;;;;7.83;47.48;101969.44;5102255;28;20509;-73
2022/12/04 09:31:17;;;;;;;70.40;26.53;;;;;;;8.09;47.64;101966.41;5102610;28;20035;-74
2022/12/04 09:33:42;;;;;;;65.63;24.90;;;;;;;7.94;46.95;101965.31;5104767;28;20026;-71
2022/12/04 09:36:08;;;;;;;71.40;26.93;;;;;;;7.22;49.07;101967.28;5106642;28;20378;-71
2022/12/04 09:38:33;;;;;;;67.67;25.73;;;;;;;8.56;46.24;101952.50;5108796;28;20405;-71
2022/12/04 09:41:22;;;;;;;67.23;25.83;;;;;;;8.42;46.11;101960.03;5108321;28;20027;-71
2022/12/04 09:44:07;;;;;;;68.30;25.33;;;;;;;8.35;47.43;101964.28;5107899;28;20124;-71
2022/12/04 09:46:45;;;;;;;71.60;28.27;;;;;;;8.46;47.34;101954.97;5109020;28;20035;-72
2022/12/04 09:49:22;;;;;;;65.50;25.00;;;;;;;8.64;46.91;101957.00;5103507;28;20034;-71
2022/12/04 09:51:51;;;;;;;68.43;27.10;;;;;;;9.65;44.43;101961.84;5111562;27;20035;-72
2022/12/04 09:54:21;;;;;;;65.60;25.93;;;;;;;7.63;48.17;101967.28;5113586;28;20402;-71
2022/12/04 09:57:15;;;;;;;69.67;28.37;;;;;;;8.88;46.31;101955.59;5115341;28;20031;-72
2022/12/04 09:59:42;;;;;;;70.63;25.47;;;;;;;9.25;44.81;101963.97;5065171;28;20051;-71
2022/12/04 10:02:26;;;;;;;66.20;24.40;;;;;;;9.23;44.66;101963.06;5113168;28;20568;-71
2022/12/04 10:04:51;;;;;;;67.80;27.60;;;;;;;8.87;45.34;101969.50;5114373;28;20084;-71
2022/12/04 10:07:49;;;;;;;62.73;23.93;;;;;;;8.51;46.77;101959.38;5113359;28;20031;-71
2022/12/04 10:10:35;;;;;;;72.57;26.30;;;;;;;8.69;46.53;101958.78;5078063;28;20650;-73
2022/12/04 10:13:19;;;;;;;64.80;24.70;;;;;;;8.38;46.58;101958.25;5113062;28;20016;-71
2022/12/04 10:16:06;;;;;;;64.53;25.27;;;;;;;8.26;47.36;101957.19;5113394;28;20031;-71
2022/12/04 10:19:21;;;;;;;71.20;26.27;;;;;;;9.09;45.34;101954.16;5112184;28;20035;-71
2022/12/04 10:21:53;;;;;;;74.43;26.30;;;;;;;9.67;44.01;101954.91;5047160;28;20039;-71
2022/12/04 10:24:24;;;;;;;69.97;26.43;;;;;;;8.95;45.44;101952.22;5112262;27;20119;-72
2022/12/04 10:26:53;;;;;;;71.37;27.83;;;;;;;8.36;46.39;101954.75;5113481;28;20028;-71
2022/12/04 10:29:26;;;;;;;71.93;25.70;;;;;;;7.59;47.99;101964.59;5112396;28;20228;-72
2022/12/04 10:31:56;;;;;;;67.97;25.67;;;;;;;8.46;47.10;101946.25;5114789;28;20031;-72
2022/12/04 10:34:27;;;;;;;69.87;26.73;;;;;;;8.68;46.17;101951.81;5111457;28;20023;-72
2022/12/04 10:37:00;;;;;;;70.40;25.47;;;;;;;9.34;44.86;101943.22;5114646;28;20097;-71
2022/12/04 10:39:35;;;;;;;66.27;25.50;;;;;;;9.07;45.02;101945.47;5111185;28;20016;-71
2022/12/04 10:42:24;;;;;;;62.27;24.53;;;;;;;8.92;45.71;101946.97;5111144;28;20024;-72
2022/12/04 10:44:50;;;;;;;66.23;24.40;;;;;;;8.87;46.22;101942.56;5114270;28;20023;-72
2022/12/04 10:47:16;;;;;;;63.90;22.00;;;;;;;8.03;47.50;101946.34;5113716;28;20031;-72
2022/12/04 10:49:42;;;;;;;63.67;23.93;;;;;;;9.10;46.09;101943.75;5113041;28;20042;-72
2022/12/04 10:52:10;;;;;;;73.83;27.47;;;;;;;9.50;44.53;101935.56;5111739;28;20049;-72
2022/12/04 10:54:43;;;;;;;62.53;25.13;;;;;;;9.57;44.94;101942.59;5113269;28;20104;-72
2022/12/04 10:57:12;;;;;;;71.03;26.87;;;;;;;8.47;47.11;101933.25;5112406;28;20490;-71
2022/12/04 10:59:53;;;;;;;63.57;24.93;;;;;;;9.05;45.84;101937.59;5111803;28;20051;-71
2022/12/04 11:02:27;;;;;;;67.83;25.27;;;;;;;8.49;47.18;101930.69;5110854;28;20108;-71
2022/12/04 11:05:01;;;;;;;61.73;25.60;;;;;;;8.42;46.62;101932.28;5111217;28;20031;-71
2022/12/04 11:07:29;;;;;;;68.13;23.97;;;;;;;8.98;46.45;101931.44;5111997;28;20039;-73
2022/12/04 11:10:30;;;;;;;58.43;22.27;;;;;;;8.73;46.63;101926.72;5113184;28;20035;-72
2022/12/04 11:13:02;;;;;;;56.87;20.70;;;;;;;7.59;48.88;101938.59;5081827;28;20031;-71
2022/12/04 11:15:28;;;;;;;57.95;21.42;;;;;;;8.97;46.14;101928.78;5110528;28;20479;-72
2022/12/04 11:17:54;;;;;;;54.23;22.57;;;;;;;8.72;46.48;101923.19;5111458;28;20061;-71
2022/12/04 11:20:23;;;;;;;51.83;19.80;;;;;;;8.77;45.94;101931.97;5113015;28;20081;-71
2022/12/04 11:22:55;;;;;;;56.67;20.93;;;;;;;9.13;45.24;101919.44;5111580;28;20020;-72
2022/12/04 11:25:22;;;;;;;;;;;;;;;8.81;46.00;101922.50;5111232;28;20023;-73
2022/12/04 11:27:51;;;;;;;50.07;17.77;;;;;;;8.37;46.87;101920.91;5111986;28;19918;-72
2022/12/04 11:30:25;;;;;;;50.13;17.33;;;;;;;8.07;46.19;101921.25;5111396;28;20015;-72
2022/12/04 11:32:52;;;;;;;48.17;16.97;;;;;;;8.28;47.28;101923.34;5111248;28;20426;-72
2022/12/04 11:35:22;;;;;;;47.70;18.50;;;;;;;8.12;46.89;101920.50;5112326;27;20110;-72
2022/12/04 11:38:03;;;;;;;48.87;18.60;;;;;;;8.32;46.87;101918.22;5111482;28;20049;-72
2022/12/04 11:40:29;;;;;;;46.53;18.37;;;;;;;9.00;45.33;101919.28;5113055;28;20092;-72